sensor_id;sensor_type;location;lat;lon;timestamp;P1;durP1;ratioP1;P2;durP2;ratioP2
10281;SDS011;5186;59.472;18.048;2023-09-19T00:02:16;6.53;;;4.40;;
10281;SDS011;5186;59.472;18.048;2023-09-19T00:04:42;6.30;;;4.50;;
10281;SDS011;5186;59.472;18.048;2023-09-19T00:07:08;8.67;;;4.43;;
10281;SDS011;5186;59.472;18.048;2023-09-19T00:09:36;8.43;;;4.73;;
10281;SDS011;5186;59.472;18.048;2023-09-19T00:12:05;9.47;;;4.63;;
10281;SDS011;5186;59.472;18.048;2023-09-19T00:14:32;8.07;;;4.83;;
10281;SDS011;5186;59.472;18.048;2023-09-19T00:17:03;7.97;;;4.17;;
10281;SDS011;5186;59.472;18.048;2023-09-19T00:19:33;8.77;;;4.80;;
10281;SDS011;5186;59.472;18.048;2023-09-19T00:21:59;8.13;;;5.23;;
10281;SDS011;5186;59.472;18.048;2023-09-19T00:24:25;8.27;;;4.80;;
10281;SDS011;5186;59.472;18.048;2023-09-19T00:26:53;9.17;;;5.00;;
10281;SDS011;5186;59.472;18.048;2023-09-19T00:29:20;9.50;;;4.83;;
10281;SDS011;5186;59.472;18.048;2023-09-19T00:31:46;12.07;;;5.37;;
10281;SDS011;5186;59.472;18.048;2023-09-19T00:34:12;9.03;;;5.33;;
10281;SDS011;5186;59.472;18.048;2023-09-19T00:36:37;11.00;;;5.43;;
10281;SDS011;5186;59.472;18.048;2023-09-19T00:39:08;9.73;;;5.77;;
10281;SDS011;5186;59.472;18.048;2023-09-19T00:41:33;8.67;;;5.77;;
10281;SDS011;5186;59.472;18.048;2023-09-19T00:44:01;11.60;;;5.67;;
10281;SDS011;5186;59.472;18.048;2023-09-19T00:46:28;11.63;;;6.13;;
10281;SDS011;5186;59.472;18.048;2023-09-19T00:48:55;9.27;;;6.00;;
10281;SDS011;5186;59.472;18.048;2023-09-19T00:51:22;10.03;;;6.13;;
10281;SDS011;5186;59.472;18.048;2023-09-19T00:53:50;11.00;;;6.20;;
10281;SDS011;5186;59.472;18.048;2023-09-19T00:56:19;11.87;;;6.70;;
10281;SDS011;5186;59.472;18.048;2023-09-19T00:58:45;10.93;;;6.50;;
10281;SDS011;5186;59.472;18.048;2023-09-19T01:01:12;12.60;;;6.77;;
10281;SDS011;5186;59.472;18.048;2023-09-19T01:03:40;13.23;;;6.87;;
10281;SDS011;5186;59.472;18.048;2023-09-19T01:06:06;9.00;;;6.43;;
10281;SDS011;5186;59.472;18.048;2023-09-19T01:08:33;10.53;;;6.73;;
10281;SDS011;5186;59.472;18.048;2023-09-19T01:14:10;11.40;;;6.83;;
10281;SDS011;5186;59.472;18.048;2023-09-19T01:16:50;13.57;;;6.70;;
10281;SDS011;5186;59.472;18.048;2023-09-19T01:19:48;14.40;;;7.60;;
10281;SDS011;5186;59.472;18.048;2023-09-19T01:27:44;9.10;;;7.00;;
10281;SDS011;5186;59.472;18.048;2023-09-19T01:30:13;9.73;;;6.87;;
10281;SDS011;5186;59.472;18.048;2023-09-19T01:32:42;15.57;;;7.70;;
10281;SDS011;5186;59.472;18.048;2023-09-19T01:35:09;9.93;;;6.87;;
10281;SDS011;5186;59.472;18.048;2023-09-19T01:37:37;14.40;;;7.50;;
10281;SDS011;5186;59.472;18.048;2023-09-19T01:40:07;11.37;;;7.40;;
10281;SDS011;5186;59.472;18.048;2023-09-19T01:48:54;11.87;;;7.50;;
10281;SDS011;5186;59.472;18.048;2023-09-19T01:54:48;9.40;;;7.30;;
10281;SDS011;5186;59.472;18.048;2023-09-19T01:57:27;14.80;;;7.60;;
10281;SDS011;5186;59.472;18.048;2023-09-19T02:00:02;16.07;;;8.00;;
10281;SDS011;5186;59.472;18.048;2023-09-19T02:02:36;13.07;;;7.93;;
10281;SDS011;5186;59.472;18.048;2023-09-19T02:05:03;12.33;;;7.37;;
10281;SDS011;5186;59.472;18.048;2023-09-19T02:07:29;14.90;;;7.53;;
10281;SDS011;5186;59.472;18.048;2023-09-19T02:09:57;16.17;;;7.80;;
10281;SDS011;5186;59.472;18.048;2023-09-19T02:12:25;13.13;;;8.30;;
10281;SDS011;5186;59.472;18.048;2023-09-19T02:14:50;10.53;;;7.80;;
10281;SDS011;5186;59.472;18.048;2023-09-19T02:17:16;13.13;;;8.03;;
10281;SDS011;5186;59.472;18.048;2023-09-19T02:19:42;15.17;;;7.77;;
10281;SDS011;5186;59.472;18.048;2023-09-19T02:22:08;14.47;;;8.33;;
10281;SDS011;5186;59.472;18.048;2023-09-19T02:24:35;13.93;;;8.00;;
10281;SDS011;5186;59.472;18.048;2023-09-19T02:27:04;13.80;;;7.87;;
10281;SDS011;5186;59.472;18.048;2023-09-19T02:29:30;12.60;;;8.07;;
10281;SDS011;5186;59.472;18.048;2023-09-19T02:31:56;12.50;;;8.30;;
10281;SDS011;5186;59.472;18.048;2023-09-19T02:34:22;16.33;;;8.50;;
10281;SDS011;5186;59.472;18.048;2023-09-19T02:36:47;13.10;;;9.40;;
10281;SDS011;5186;59.472;18.048;2023-09-19T02:39:13;14.73;;;9.00;;
10281;SDS011;5186;59.472;18.048;2023-09-19T02:41:39;12.13;;;9.13;;
10281;SDS011;5186;59.472;18.048;2023-09-19T02:44:06;13.63;;;8.53;;
10281;SDS011;5186;59.472;18.048;2023-09-19T02:46:32;12.93;;;9.10;;
10281;SDS011;5186;59.472;18.048;2023-09-19T02:48:58;14.53;;;9.53;;
10281;SDS011;5186;59.472;18.048;2023-09-19T02:51:24;17.17;;;10.00;;
10281;SDS011;5186;59.472;18.048;2023-09-19T02:53:50;14.60;;;9.43;;
10281;SDS011;5186;59.472;18.048;2023-09-19T02:56:18;17.13;;;9.20;;
10281;SDS011;5186;59.472;18.048;2023-09-19T02:58:43;17.13;;;10.10;;
10281;SDS011;5186;59.472;18.048;2023-09-19T03:01:09;14.30;;;10.20;;
10281;SDS011;5186;59.472;18.048;2023-09-19T03:03:37;13.83;;;9.87;;
10281;SDS011;5186;59.472;18.048;2023-09-19T03:06:04;15.90;;;10.27;;
10281;SDS011;5186;59.472;18.048;2023-09-19T03:08:34;16.87;;;10.53;;
10281;SDS011;5186;59.472;18.048;2023-09-19T03:11:03;16.07;;;10.37;;
10281;SDS011;5186;59.472;18.048;2023-09-19T03:13:28;14.37;;;10.17;;
10281;SDS011;5186;59.472;18.048;2023-09-19T03:15:56;16.97;;;10.80;;
10281;SDS011;5186;59.472;18.048;2023-09-19T03:18:23;16.80;;;10.83;;
10281;SDS011;5186;59.472;18.048;2023-09-19T03:20:55;15.90;;;10.73;;
10281;SDS011;5186;59.472;18.048;2023-09-19T03:23:21;18.30;;;11.27;;
10281;SDS011;5186;59.472;18.048;2023-09-19T03:25:47;17.50;;;11.10;;
10281;SDS011;5186;59.472;18.048;2023-09-19T03:28:13;19.57;;;11.33;;
10281;SDS011;5186;59.472;18.048;2023-09-19T03:30:40;18.00;;;11.23;;
10281;SDS011;5186;59.472;18.048;2023-09-19T03:33:06;15.83;;;11.53;;
10281;SDS011;5186;59.472;18.048;2023-09-19T03:35:31;18.43;;;12.10;;
10281;SDS011;5186;59.472;18.048;2023-09-19T03:37:57;17.83;;;10.73;;
10281;SDS011;5186;59.472;18.048;2023-09-19T03:40:22;19.00;;;11.80;;
10281;SDS011;5186;59.472;18.048;2023-09-19T03:42:48;18.60;;;12.10;;
10281;SDS011;5186;59.472;18.048;2023-09-19T03:45:14;15.90;;;11.47;;
10281;SDS011;5186;59.472;18.048;2023-09-19T03:47:41;19.63;;;11.90;;
10281;SDS011;5186;59.472;18.048;2023-09-19T03:50:06;21.93;;;12.77;;
10281;SDS011;5186;59.472;18.048;2023-09-19T03:52:42;20.47;;;13.33;;
10281;SDS011;5186;59.472;18.048;2023-09-19T03:55:10;21.90;;;13.27;;
10281;SDS011;5186;59.472;18.048;2023-09-19T03:57:36;18.43;;;12.83;;
10281;SDS011;5186;59.472;18.048;2023-09-19T04:00:02;19.70;;;13.13;;
10281;SDS011;5186;59.472;18.048;2023-09-19T04:02:36;19.10;;;13.67;;
10281;SDS011;5186;59.472;18.048;2023-09-19T04:05:02;21.30;;;12.70;;
10281;SDS011;5186;59.472;18.048;2023-09-19T04:07:28;21.00;;;13.57;;
10281;SDS011;5186;59.472;18.048;2023-09-19T04:09:55;16.90;;;13.53;;
10281;SDS011;5186;59.472;18.048;2023-09-19T04:12:20;20.63;;;13.27;;
10281;SDS011;5186;59.472;18.048;2023-09-19T04:14:46;18.80;;;13.10;;
10281;SDS011;5186;59.472;18.048;2023-09-19T04:17:12;22.30;;;14.27;;
10281;SDS011;5186;59.472;18.048;2023-09-19T04:19:37;17.17;;;13.70;;
10281;SDS011;5186;59.472;18.048;2023-09-19T04:22:03;20.03;;;13.50;;
10281;SDS011;5186;59.472;18.048;2023-09-19T04:24:29;21.37;;;13.83;;
10281;SDS011;5186;59.472;18.048;2023-09-19T04:26:55;23.53;;;14.93;;
10281;SDS011;5186;59.472;18.048;2023-09-19T04:29:22;22.20;;;13.97;;
10281;SDS011;5186;59.472;18.048;2023-09-19T04:31:47;17.63;;;13.43;;
10281;SDS011;5186;59.472;18.048;2023-09-19T04:34:13;22.70;;;14.70;;
10281;SDS011;5186;59.472;18.048;2023-09-19T04:36:42;21.53;;;14.30;;
10281;SDS011;5186;59.472;18.048;2023-09-19T04:39:08;19.90;;;14.00;;
10281;SDS011;5186;59.472;18.048;2023-09-19T04:41:35;21.67;;;13.93;;
10281;SDS011;5186;59.472;18.048;2023-09-19T04:44:05;21.87;;;14.53;;
10281;SDS011;5186;59.472;18.048;2023-09-19T04:46:30;23.07;;;14.67;;
10281;SDS011;5186;59.472;18.048;2023-09-19T04:48:56;25.47;;;14.87;;
10281;SDS011;5186;59.472;18.048;2023-09-19T04:51:22;19.73;;;14.27;;
10281;SDS011;5186;59.472;18.048;2023-09-19T04:53:48;22.23;;;15.17;;
10281;SDS011;5186;59.472;18.048;2023-09-19T04:56:14;24.50;;;14.80;;
10281;SDS011;5186;59.472;18.048;2023-09-19T04:58:40;24.00;;;15.10;;
10281;SDS011;5186;59.472;18.048;2023-09-19T05:01:05;20.90;;;14.37;;
10281;SDS011;5186;59.472;18.048;2023-09-19T05:03:36;20.57;;;14.37;;
10281;SDS011;5186;59.472;18.048;2023-09-19T05:06:02;18.60;;;14.23;;
10281;SDS011;5186;59.472;18.048;2023-09-19T05:08:28;19.90;;;14.80;;
10281;SDS011;5186;59.472;18.048;2023-09-19T05:10:53;22.03;;;15.13;;
10281;SDS011;5186;59.472;18.048;2023-09-19T05:13:21;24.87;;;16.00;;
10281;SDS011;5186;59.472;18.048;2023-09-19T05:15:48;21.50;;;15.47;;
10281;SDS011;5186;59.472;18.048;2023-09-19T05:18:15;20.10;;;15.60;;
10281;SDS011;5186;59.472;18.048;2023-09-19T05:20:40;24.07;;;16.13;;
10281;SDS011;5186;59.472;18.048;2023-09-19T05:23:07;24.30;;;14.80;;
10281;SDS011;5186;59.472;18.048;2023-09-19T05:25:34;18.70;;;15.07;;
10281;SDS011;5186;59.472;18.048;2023-09-19T05:28:04;21.80;;;15.70;;
10281;SDS011;5186;59.472;18.048;2023-09-19T05:30:31;22.80;;;15.37;;
10281;SDS011;5186;59.472;18.048;2023-09-19T05:32:57;24.03;;;15.60;;
10281;SDS011;5186;59.472;18.048;2023-09-19T05:35:23;21.73;;;15.10;;
10281;SDS011;5186;59.472;18.048;2023-09-19T05:37:50;20.17;;;15.57;;
10281;SDS011;5186;59.472;18.048;2023-09-19T05:40:16;19.37;;;14.80;;
10281;SDS011;5186;59.472;18.048;2023-09-19T05:42:43;19.47;;;14.40;;
10281;SDS011;5186;59.472;18.048;2023-09-19T05:45:09;18.70;;;15.10;;
10281;SDS011;5186;59.472;18.048;2023-09-19T05:47:41;21.73;;;14.00;;
10281;SDS011;5186;59.472;18.048;2023-09-19T05:50:08;22.57;;;14.50;;
10281;SDS011;5186;59.472;18.048;2023-09-19T05:52:34;21.30;;;13.97;;
10281;SDS011;5186;59.472;18.048;2023-09-19T05:55:02;24.10;;;15.47;;
10281;SDS011;5186;59.472;18.048;2023-09-19T05:57:32;19.57;;;14.47;;
10281;SDS011;5186;59.472;18.048;2023-09-19T06:00:01;19.93;;;14.07;;
10281;SDS011;5186;59.472;18.048;2023-09-19T06:02:26;17.07;;;13.87;;
10281;SDS011;5186;59.472;18.048;2023-09-19T06:04:54;17.73;;;13.90;;
10281;SDS011;5186;59.472;18.048;2023-09-19T06:07:20;19.03;;;13.77;;
10281;SDS011;5186;59.472;18.048;2023-09-19T06:09:48;19.07;;;14.17;;
10281;SDS011;5186;59.472;18.048;2023-09-19T06:12:14;19.30;;;14.80;;
10281;SDS011;5186;59.472;18.048;2023-09-19T06:14:42;20.13;;;14.10;;
10281;SDS011;5186;59.472;18.048;2023-09-19T06:17:08;20.20;;;14.23;;
10281;SDS011;5186;59.472;18.048;2023-09-19T06:19:33;18.90;;;14.47;;
10281;SDS011;5186;59.472;18.048;2023-09-19T06:21:59;18.90;;;14.30;;
10281;SDS011;5186;59.472;18.048;2023-09-19T06:24:25;18.20;;;14.10;;
10281;SDS011;5186;59.472;18.048;2023-09-19T06:26:51;18.73;;;14.93;;
10281;SDS011;5186;59.472;18.048;2023-09-19T06:29:18;19.80;;;14.57;;
10281;SDS011;5186;59.472;18.048;2023-09-19T06:31:45;23.70;;;15.10;;
10281;SDS011;5186;59.472;18.048;2023-09-19T06:34:12;22.03;;;15.33;;
10281;SDS011;5186;59.472;18.048;2023-09-19T06:36:40;20.90;;;14.93;;
10281;SDS011;5186;59.472;18.048;2023-09-19T06:39:06;22.67;;;16.10;;
10281;SDS011;5186;59.472;18.048;2023-09-19T06:41:35;19.03;;;14.87;;
10281;SDS011;5186;59.472;18.048;2023-09-19T06:44:03;18.87;;;15.20;;
10281;SDS011;5186;59.472;18.048;2023-09-19T06:46:30;18.80;;;15.70;;
10281;SDS011;5186;59.472;18.048;2023-09-19T06:48:58;20.83;;;15.43;;
10281;SDS011;5186;59.472;18.048;2023-09-19T06:51:23;18.67;;;15.97;;
10281;SDS011;5186;59.472;18.048;2023-09-19T06:53:49;19.13;;;15.50;;
10281;SDS011;5186;59.472;18.048;2023-09-19T06:56:14;23.47;;;15.17;;
10281;SDS011;5186;59.472;18.048;2023-09-19T06:58:40;18.77;;;15.33;;
10281;SDS011;5186;59.472;18.048;2023-09-19T07:01:06;19.17;;;15.53;;
10281;SDS011;5186;59.472;18.048;2023-09-19T07:03:32;23.33;;;15.33;;
10281;SDS011;5186;59.472;18.048;2023-09-19T07:05:58;20.33;;;15.63;;
10281;SDS011;5186;59.472;18.048;2023-09-19T07:08:24;21.77;;;16.07;;
10281;SDS011;5186;59.472;18.048;2023-09-19T07:10:49;20.43;;;14.53;;
10281;SDS011;5186;59.472;18.048;2023-09-19T07:13:17;18.00;;;15.13;;
10281;SDS011;5186;59.472;18.048;2023-09-19T07:15:43;18.70;;;15.73;;
10281;SDS011;5186;59.472;18.048;2023-09-19T07:18:13;23.83;;;16.17;;
10281;SDS011;5186;59.472;18.048;2023-09-19T07:20:40;21.77;;;15.80;;
10281;SDS011;5186;59.472;18.048;2023-09-19T07:23:10;21.80;;;15.90;;
10281;SDS011;5186;59.472;18.048;2023-09-19T07:25:38;20.30;;;16.27;;
10281;SDS011;5186;59.472;18.048;2023-09-19T07:28:04;25.03;;;16.33;;
10281;SDS011;5186;59.472;18.048;2023-09-19T07:30:30;18.10;;;16.10;;
10281;SDS011;5186;59.472;18.048;2023-09-19T07:32:56;21.70;;;15.87;;
10281;SDS011;5186;59.472;18.048;2023-09-19T07:35:21;18.23;;;14.17;;
10281;SDS011;5186;59.472;18.048;2023-09-19T07:37:48;19.70;;;13.73;;
10281;SDS011;5186;59.472;18.048;2023-09-19T07:40:15;16.77;;;13.20;;
10281;SDS011;5186;59.472;18.048;2023-09-19T07:42:40;14.10;;;12.63;;
10281;SDS011;5186;59.472;18.048;2023-09-19T07:45:07;14.97;;;12.27;;
10281;SDS011;5186;59.472;18.048;2023-09-19T07:47:33;14.77;;;12.03;;
10281;SDS011;5186;59.472;18.048;2023-09-19T07:50:01;12.77;;;11.47;;
10281;SDS011;5186;59.472;18.048;2023-09-19T07:52:27;14.50;;;11.00;;
10281;SDS011;5186;59.472;18.048;2023-09-19T07:54:54;12.73;;;11.07;;
10281;SDS011;5186;59.472;18.048;2023-09-19T07:57:19;12.40;;;10.83;;
10281;SDS011;5186;59.472;18.048;2023-09-19T07:59:45;16.07;;;11.40;;
10281;SDS011;5186;59.472;18.048;2023-09-19T08:02:11;14.00;;;11.17;;
10281;SDS011;5186;59.472;18.048;2023-09-19T08:04:44;13.53;;;11.20;;
10281;SDS011;5186;59.472;18.048;2023-09-19T08:07:14;14.20;;;11.27;;
10281;SDS011;5186;59.472;18.048;2023-09-19T08:09:40;14.67;;;11.50;;
10281;SDS011;5186;59.472;18.048;2023-09-19T08:12:06;14.27;;;11.43;;
10281;SDS011;5186;59.472;18.048;2023-09-19T08:14:35;12.73;;;11.40;;
10281;SDS011;5186;59.472;18.048;2023-09-19T08:17:02;13.07;;;11.10;;
10281;SDS011;5186;59.472;18.048;2023-09-19T08:19:29;15.30;;;12.60;;
10281;SDS011;5186;59.472;18.048;2023-09-19T08:21:57;12.93;;;11.50;;
10281;SDS011;5186;59.472;18.048;2023-09-19T08:24:27;17.47;;;11.97;;
10281;SDS011;5186;59.472;18.048;2023-09-19T08:26:54;14.30;;;11.93;;
10281;SDS011;5186;59.472;18.048;2023-09-19T08:29:20;14.77;;;13.00;;
10281;SDS011;5186;59.472;18.048;2023-09-19T08:31:52;14.67;;;12.67;;
10281;SDS011;5186;59.472;18.048;2023-09-19T08:34:24;16.63;;;12.50;;
10281;SDS011;5186;59.472;18.048;2023-09-19T08:36:50;17.67;;;13.00;;
10281;SDS011;5186;59.472;18.048;2023-09-19T08:39:17;16.37;;;13.17;;
10281;SDS011;5186;59.472;18.048;2023-09-19T08:41:44;17.87;;;12.30;;
10281;SDS011;5186;59.472;18.048;2023-09-19T08:44:10;14.63;;;12.27;;
10281;SDS011;5186;59.472;18.048;2023-09-19T08:46:35;18.77;;;12.70;;
10281;SDS011;5186;59.472;18.048;2023-09-19T08:49:08;16.27;;;12.23;;
10281;SDS011;5186;59.472;18.048;2023-09-19T08:51:47;13.80;;;11.60;;
10281;SDS011;5186;59.472;18.048;2023-09-19T08:54:21;16.93;;;12.63;;
10281;SDS011;5186;59.472;18.048;2023-09-19T08:56:51;14.57;;;12.07;;
10281;SDS011;5186;59.472;18.048;2023-09-19T08:59:21;14.47;;;11.57;;
10281;SDS011;5186;59.472;18.048;2023-09-19T09:01:50;15.97;;;11.40;;
10281;SDS011;5186;59.472;18.048;2023-09-19T09:04:18;15.03;;;11.87;;
10281;SDS011;5186;59.472;18.048;2023-09-19T09:06:45;13.43;;;11.00;;
10281;SDS011;5186;59.472;18.048;2023-09-19T09:09:13;12.97;;;10.43;;
10281;SDS011;5186;59.472;18.048;2023-09-19T09:11:39;12.53;;;10.50;;
10281;SDS011;5186;59.472;18.048;2023-09-19T09:14:05;15.97;;;10.30;;
10281;SDS011;5186;59.472;18.048;2023-09-19T09:16:32;12.70;;;9.77;;
10281;SDS011;5186;59.472;18.048;2023-09-19T09:18:58;12.07;;;9.57;;
10281;SDS011;5186;59.472;18.048;2023-09-19T09:21:24;13.50;;;9.47;;
10281;SDS011;5186;59.472;18.048;2023-09-19T09:23:51;10.17;;;8.47;;
10281;SDS011;5186;59.472;18.048;2023-09-19T09:26:17;10.90;;;8.60;;
10281;SDS011;5186;59.472;18.048;2023-09-19T09:29:03;12.90;;;8.37;;
10281;SDS011;5186;59.472;18.048;2023-09-19T09:31:28;12.90;;;7.37;;
10281;SDS011;5186;59.472;18.048;2023-09-19T09:33:55;9.47;;;7.30;;
10281;SDS011;5186;59.472;18.048;2023-09-19T09:36:34;9.10;;;7.40;;
10281;SDS011;5186;59.472;18.048;2023-09-19T09:39:01;10.03;;;7.60;;
10281;SDS011;5186;59.472;18.048;2023-09-19T09:41:41;10.03;;;6.80;;
10281;SDS011;5186;59.472;18.048;2023-09-19T09:44:17;12.13;;;7.37;;
10281;SDS011;5186;59.472;18.048;2023-09-19T09:46:44;11.27;;;6.77;;
10281;SDS011;5186;59.472;18.048;2023-09-19T09:49:23;7.90;;;6.33;;
10281;SDS011;5186;59.472;18.048;2023-09-19T09:51:58;9.40;;;6.73;;
10281;SDS011;5186;59.472;18.048;2023-09-19T09:54:29;7.57;;;5.83;;
10281;SDS011;5186;59.472;18.048;2023-09-19T09:57:05;7.90;;;6.17;;
10281;SDS011;5186;59.472;18.048;2023-09-19T09:59:51;7.17;;;5.87;;
10281;SDS011;5186;59.472;18.048;2023-09-19T10:02:27;6.47;;;5.83;;
10281;SDS011;5186;59.472;18.048;2023-09-19T10:04:57;11.13;;;6.23;;
10281;SDS011;5186;59.472;18.048;2023-09-19T10:07:39;9.00;;;5.63;;
10281;SDS011;5186;59.472;18.048;2023-09-19T10:10:07;9.37;;;5.70;;
10281;SDS011;5186;59.472;18.048;2023-09-19T10:12:49;7.90;;;6.13;;
10281;SDS011;5186;59.472;18.048;2023-09-19T10:15:17;8.43;;;5.87;;
10281;SDS011;5186;59.472;18.048;2023-09-19T10:17:45;8.63;;;5.73;;
10281;SDS011;5186;59.472;18.048;2023-09-19T10:20:13;8.53;;;5.83;;
10281;SDS011;5186;59.472;18.048;2023-09-19T10:23:04;7.70;;;5.63;;
10281;SDS011;5186;59.472;18.048;2023-09-19T10:25:38;7.30;;;5.50;;
10281;SDS011;5186;59.472;18.048;2023-09-19T10:28:05;8.73;;;5.50;;
10281;SDS011;5186;59.472;18.048;2023-09-19T10:33:10;5.73;;;4.50;;
10281;SDS011;5186;59.472;18.048;2023-09-19T10:35:40;6.57;;;5.40;;
10281;SDS011;5186;59.472;18.048;2023-09-19T10:38:11;7.03;;;5.53;;
10281;SDS011;5186;59.472;18.048;2023-09-19T10:40:38;6.27;;;5.07;;
10281;SDS011;5186;59.472;18.048;2023-09-19T10:43:20;9.70;;;4.93;;
10281;SDS011;5186;59.472;18.048;2023-09-19T10:45:50;5.70;;;4.97;;
10281;SDS011;5186;59.472;18.048;2023-09-19T10:48:17;5.40;;;4.90;;
10281;SDS011;5186;59.472;18.048;2023-09-19T10:53:29;6.07;;;5.00;;
10281;SDS011;5186;59.472;18.048;2023-09-19T10:56:08;6.73;;;4.40;;
10281;SDS011;5186;59.472;18.048;2023-09-19T10:58:42;8.60;;;4.97;;
10281;SDS011;5186;59.472;18.048;2023-09-19T11:01:09;7.13;;;4.57;;
10281;SDS011;5186;59.472;18.048;2023-09-19T11:03:43;6.03;;;4.70;;
10281;SDS011;5186;59.472;18.048;2023-09-19T11:06:27;5.83;;;4.13;;
10281;SDS011;5186;59.472;18.048;2023-09-19T11:14:28;7.63;;;4.33;;
10281;SDS011;5186;59.472;18.048;2023-09-19T11:30:45;4.77;;;4.30;;
10281;SDS011;5186;59.472;18.048;2023-09-19T11:46:17;8.77;;;3.90;;
10281;SDS011;5186;59.472;18.048;2023-09-19T11:48:47;5.47;;;4.20;;
10281;SDS011;5186;59.472;18.048;2023-09-19T11:51:15;4.67;;;3.50;;
10281;SDS011;5186;59.472;18.048;2023-09-19T11:53:48;4.83;;;3.23;;
10281;SDS011;5186;59.472;18.048;2023-09-19T11:56:15;3.37;;;2.97;;
10281;SDS011;5186;59.472;18.048;2023-09-19T11:58:42;5.40;;;2.90;;
10281;SDS011;5186;59.472;18.048;2023-09-19T12:01:15;4.30;;;2.27;;
10281;SDS011;5186;59.472;18.048;2023-09-19T12:03:46;3.93;;;1.87;;
10281;SDS011;5186;59.472;18.048;2023-09-19T12:06:17;2.07;;;1.80;;
10281;SDS011;5186;59.472;18.048;2023-09-19T12:08:43;2.97;;;1.60;;
10281;SDS011;5186;59.472;18.048;2023-09-19T12:11:15;3.43;;;1.20;;
10281;SDS011;5186;59.472;18.048;2023-09-19T12:13:45;2.97;;;1.27;;
10281;SDS011;5186;59.472;18.048;2023-09-19T12:16:17;2.43;;;1.10;;
10281;SDS011;5186;59.472;18.048;2023-09-19T12:18:48;1.73;;;1.43;;
10281;SDS011;5186;59.472;18.048;2023-09-19T12:21:21;2.60;;;1.10;;
10281;SDS011;5186;59.472;18.048;2023-09-19T12:23:59;1.50;;;1.27;;
10281;SDS011;5186;59.472;18.048;2023-09-19T12:26:41;2.37;;;1.10;;
10281;SDS011;5186;59.472;18.048;2023-09-19T12:29:14;2.73;;;1.20;;
10281;SDS011;5186;59.472;18.048;2023-09-19T12:31:49;2.83;;;1.10;;
10281;SDS011;5186;59.472;18.048;2023-09-19T12:34:28;1.93;;;1.07;;
10281;SDS011;5186;59.472;18.048;2023-09-19T12:39:41;2.80;;;1.07;;
10281;SDS011;5186;59.472;18.048;2023-09-19T12:42:09;2.20;;;1.03;;
10281;SDS011;5186;59.472;18.048;2023-09-19T12:44:36;3.70;;;1.23;;
10281;SDS011;5186;59.472;18.048;2023-09-19T12:47:09;1.70;;;1.07;;
10281;SDS011;5186;59.472;18.048;2023-09-19T12:52:38;2.60;;;1.20;;
10281;SDS011;5186;59.472;18.048;2023-09-19T12:55:05;2.10;;;0.90;;
10281;SDS011;5186;59.472;18.048;2023-09-19T12:57:36;2.47;;;1.23;;
10281;SDS011;5186;59.472;18.048;2023-09-19T13:00:05;3.40;;;1.00;;
10281;SDS011;5186;59.472;18.048;2023-09-19T13:02:31;2.90;;;1.20;;
10281;SDS011;5186;59.472;18.048;2023-09-19T13:04:58;2.10;;;1.10;;
10281;SDS011;5186;59.472;18.048;2023-09-19T13:07:44;2.83;;;1.10;;
10281;SDS011;5186;59.472;18.048;2023-09-19T13:10:15;3.43;;;1.30;;
10281;SDS011;5186;59.472;18.048;2023-09-19T13:12:41;5.23;;;1.37;;
10281;SDS011;5186;59.472;18.048;2023-09-19T13:15:12;2.07;;;1.00;;
10281;SDS011;5186;59.472;18.048;2023-09-19T13:17:44;1.97;;;1.13;;
10281;SDS011;5186;59.472;18.048;2023-09-19T13:23:35;1.97;;;1.10;;
10281;SDS011;5186;59.472;18.048;2023-09-19T13:26:02;1.60;;;1.00;;
10281;SDS011;5186;59.472;18.048;2023-09-19T13:28:29;2.33;;;1.53;;
10281;SDS011;5186;59.472;18.048;2023-09-19T13:30:55;3.00;;;1.20;;
10281;SDS011;5186;59.472;18.048;2023-09-19T13:33:20;3.73;;;1.40;;
10281;SDS011;5186;59.472;18.048;2023-09-19T13:35:46;2.97;;;1.20;;
10281;SDS011;5186;59.472;18.048;2023-09-19T13:38:13;4.00;;;1.50;;
10281;SDS011;5186;59.472;18.048;2023-09-19T13:40:39;4.40;;;1.50;;
10281;SDS011;5186;59.472;18.048;2023-09-19T13:43:06;3.23;;;1.30;;
10281;SDS011;5186;59.472;18.048;2023-09-19T13:45:33;3.63;;;1.50;;
10281;SDS011;5186;59.472;18.048;2023-09-19T13:47:59;3.50;;;1.40;;
10281;SDS011;5186;59.472;18.048;2023-09-19T13:50:24;9.93;;;1.40;;
10281;SDS011;5186;59.472;18.048;2023-09-19T13:52:54;6.10;;;1.67;;
10281;SDS011;5186;59.472;18.048;2023-09-19T13:55:19;4.00;;;1.40;;
10281;SDS011;5186;59.472;18.048;2023-09-19T13:57:48;3.17;;;1.50;;
10281;SDS011;5186;59.472;18.048;2023-09-19T14:00:21;2.40;;;1.17;;
10281;SDS011;5186;59.472;18.048;2023-09-19T14:02:47;3.10;;;1.20;;
10281;SDS011;5186;59.472;18.048;2023-09-19T14:05:14;4.30;;;1.10;;
10281;SDS011;5186;59.472;18.048;2023-09-19T14:07:41;3.30;;;1.30;;
10281;SDS011;5186;59.472;18.048;2023-09-19T14:10:08;3.13;;;1.27;;
10281;SDS011;5186;59.472;18.048;2023-09-19T14:12:35;2.90;;;1.30;;
10281;SDS011;5186;59.472;18.048;2023-09-19T14:15:08;3.37;;;1.40;;
10281;SDS011;5186;59.472;18.048;2023-09-19T14:17:34;3.70;;;1.30;;
10281;SDS011;5186;59.472;18.048;2023-09-19T14:19:59;2.73;;;1.20;;
10281;SDS011;5186;59.472;18.048;2023-09-19T14:22:25;1.93;;;1.10;;
10281;SDS011;5186;59.472;18.048;2023-09-19T14:24:51;2.27;;;1.20;;
10281;SDS011;5186;59.472;18.048;2023-09-19T14:27:17;1.90;;;1.30;;
10281;SDS011;5186;59.472;18.048;2023-09-19T14:29:43;1.70;;;1.00;;
10281;SDS011;5186;59.472;18.048;2023-09-19T14:32:09;3.13;;;1.47;;
10281;SDS011;5186;59.472;18.048;2023-09-19T14:34:35;3.20;;;1.30;;
10281;SDS011;5186;59.472;18.048;2023-09-19T14:37:06;1.97;;;1.17;;
10281;SDS011;5186;59.472;18.048;2023-09-19T14:39:36;3.00;;;1.20;;
10281;SDS011;5186;59.472;18.048;2023-09-19T14:42:03;1.77;;;1.00;;
10281;SDS011;5186;59.472;18.048;2023-09-19T14:44:29;3.67;;;1.20;;
10281;SDS011;5186;59.472;18.048;2023-09-19T14:46:55;4.23;;;1.27;;
10281;SDS011;5186;59.472;18.048;2023-09-19T14:49:21;1.40;;;0.87;;
10281;SDS011;5186;59.472;18.048;2023-09-19T14:51:46;4.77;;;1.20;;
10281;SDS011;5186;59.472;18.048;2023-09-19T14:54:17;3.30;;;1.30;;
10281;SDS011;5186;59.472;18.048;2023-09-19T14:56:43;3.47;;;1.13;;
10281;SDS011;5186;59.472;18.048;2023-09-19T14:59:09;2.53;;;1.00;;
10281;SDS011;5186;59.472;18.048;2023-09-19T15:01:40;3.47;;;0.80;;
10281;SDS011;5186;59.472;18.048;2023-09-19T15:04:07;3.83;;;1.10;;
10281;SDS011;5186;59.472;18.048;2023-09-19T15:06:33;2.17;;;1.10;;
10281;SDS011;5186;59.472;18.048;2023-09-19T15:08:59;2.43;;;1.00;;
10281;SDS011;5186;59.472;18.048;2023-09-19T15:11:24;2.53;;;0.97;;
10281;SDS011;5186;59.472;18.048;2023-09-19T15:13:51;2.03;;;0.90;;
10281;SDS011;5186;59.472;18.048;2023-09-19T15:16:17;3.57;;;1.17;;
10281;SDS011;5186;59.472;18.048;2023-09-19T15:18:44;3.23;;;1.53;;
10281;SDS011;5186;59.472;18.048;2023-09-19T15:21:12;3.50;;;1.00;;
10281;SDS011;5186;59.472;18.048;2023-09-19T15:23:39;3.30;;;1.20;;
10281;SDS011;5186;59.472;18.048;2023-09-19T15:26:06;2.90;;;0.70;;
10281;SDS011;5186;59.472;18.048;2023-09-19T15:28:36;4.07;;;0.80;;
10281;SDS011;5186;59.472;18.048;2023-09-19T15:31:09;1.80;;;0.77;;
10281;SDS011;5186;59.472;18.048;2023-09-19T15:33:35;0.80;;;0.40;;
10281;SDS011;5186;59.472;18.048;2023-09-19T15:38:32;1.37;;;0.50;;
10281;SDS011;5186;59.472;18.048;2023-09-19T15:41:12;1.10;;;0.40;;
10281;SDS011;5186;59.472;18.048;2023-09-19T15:43:38;1.37;;;0.60;;
10281;SDS011;5186;59.472;18.048;2023-09-19T15:46:04;0.97;;;0.50;;
10281;SDS011;5186;59.472;18.048;2023-09-19T15:48:29;1.20;;;0.50;;